Terminal Aerodrome Forecast
Issued by NWS

Home | Current Version | Previous Version | Graphics & Text | Print | Product List | Glossary On
Versions: 1 2 3 4 5 6 7 8 9 10 11 12 13 14 15 16 17 18 19 20 21 22 23 24 25 26 27 28 29
000
FTUS43 KLOT 302351 CCA
TAFORD
TAF COR
KORD 302351Z 3100/0106 07008KT P6SM FEW080
     FM310500 12005KT P6SM SCT120
     FM311500 15008KT P6SM SCT050
     FM311900 14008KT P6SM SCT050 BKN100
     FM010300 13009KT P6SM SCT050 BKN080=

USA.gov is the U.S. government's official web portal to all federal, state and local government web resources and services.